sensor_id;sensor_type;location;lat;lon;timestamp;P1;durP1;ratioP1;P2;durP2;ratioP2
22024;SDS011;11176;51.448;6.650;2023-02-12T00:01:10;54.92;;;35.15;;
22024;SDS011;11176;51.448;6.650;2023-02-12T00:03:38;54.92;;;33.65;;
22024;SDS011;11176;51.448;6.650;2023-02-12T00:06:06;54.38;;;34.33;;
22024;SDS011;11176;51.448;6.650;2023-02-12T00:08:33;63.55;;;36.63;;
22024;SDS011;11176;51.448;6.650;2023-02-12T00:11:10;57.75;;;35.10;;
22024;SDS011;11176;51.448;6.650;2023-02-12T00:13:41;55.72;;;34.63;;
22024;SDS011;11176;51.448;6.650;2023-02-12T00:16:09;55.17;;;34.60;;
22024;SDS011;11176;51.448;6.650;2023-02-12T00:18:38;55.80;;;34.70;;
22024;SDS011;11176;51.448;6.650;2023-02-12T00:21:05;55.65;;;33.38;;
22024;SDS011;11176;51.448;6.650;2023-02-12T00:23:34;57.78;;;34.80;;
22024;SDS011;11176;51.448;6.650;2023-02-12T00:26:03;55.45;;;34.47;;
22024;SDS011;11176;51.448;6.650;2023-02-12T00:28:30;51.40;;;33.08;;
22024;SDS011;11176;51.448;6.650;2023-02-12T00:30:57;58.13;;;35.88;;
22024;SDS011;11176;51.448;6.650;2023-02-12T00:33:25;59.90;;;35.25;;
22024;SDS011;11176;51.448;6.650;2023-02-12T00:35:55;56.47;;;35.10;;
22024;SDS011;11176;51.448;6.650;2023-02-12T00:38:22;57.38;;;35.92;;
22024;SDS011;11176;51.448;6.650;2023-02-12T00:40:49;52.63;;;33.55;;
22024;SDS011;11176;51.448;6.650;2023-02-12T00:43:15;54.90;;;34.20;;
22024;SDS011;11176;51.448;6.650;2023-02-12T00:45:43;59.03;;;36.42;;
22024;SDS011;11176;51.448;6.650;2023-02-12T00:48:10;55.90;;;33.97;;
22024;SDS011;11176;51.448;6.650;2023-02-12T00:50:37;57.47;;;35.60;;
22024;SDS011;11176;51.448;6.650;2023-02-12T00:53:05;60.88;;;36.42;;
22024;SDS011;11176;51.448;6.650;2023-02-12T00:55:32;58.17;;;35.78;;
22024;SDS011;11176;51.448;6.650;2023-02-12T00:57:59;55.88;;;35.33;;
22024;SDS011;11176;51.448;6.650;2023-02-12T01:00:27;58.10;;;35.63;;
22024;SDS011;11176;51.448;6.650;2023-02-12T01:02:55;56.47;;;35.88;;
22024;SDS011;11176;51.448;6.650;2023-02-12T01:05:22;58.65;;;35.38;;
22024;SDS011;11176;51.448;6.650;2023-02-12T01:07:51;60.33;;;38.88;;
22024;SDS011;11176;51.448;6.650;2023-02-12T01:10:19;60.72;;;36.47;;
22024;SDS011;11176;51.448;6.650;2023-02-12T01:12:46;59.25;;;37.03;;
22024;SDS011;11176;51.448;6.650;2023-02-12T01:15:13;57.60;;;37.25;;
22024;SDS011;11176;51.448;6.650;2023-02-12T01:17:40;57.83;;;36.97;;
22024;SDS011;11176;51.448;6.650;2023-02-12T01:20:08;58.75;;;35.05;;
22024;SDS011;11176;51.448;6.650;2023-02-12T01:22:37;63.28;;;38.15;;
22024;SDS011;11176;51.448;6.650;2023-02-12T01:25:04;61.22;;;36.30;;
22024;SDS011;11176;51.448;6.650;2023-02-12T01:27:31;60.55;;;37.03;;
22024;SDS011;11176;51.448;6.650;2023-02-12T01:29:58;58.35;;;34.60;;
22024;SDS011;11176;51.448;6.650;2023-02-12T01:32:25;53.78;;;35.08;;
22024;SDS011;11176;51.448;6.650;2023-02-12T01:34:51;62.65;;;37.00;;
22024;SDS011;11176;51.448;6.650;2023-02-12T01:37:20;58.10;;;36.78;;
22024;SDS011;11176;51.448;6.650;2023-02-12T01:39:46;57.53;;;36.13;;
22024;SDS011;11176;51.448;6.650;2023-02-12T01:42:14;63.35;;;38.15;;
22024;SDS011;11176;51.448;6.650;2023-02-12T01:44:45;57.42;;;36.25;;
22024;SDS011;11176;51.448;6.650;2023-02-12T01:47:43;58.47;;;35.50;;
22024;SDS011;11176;51.448;6.650;2023-02-12T01:50:11;63.03;;;36.58;;
22024;SDS011;11176;51.448;6.650;2023-02-12T01:52:42;58.85;;;36.78;;
22024;SDS011;11176;51.448;6.650;2023-02-12T01:55:13;55.97;;;36.10;;
22024;SDS011;11176;51.448;6.650;2023-02-12T01:57:42;59.55;;;38.13;;
22024;SDS011;11176;51.448;6.650;2023-02-12T02:00:13;65.00;;;39.83;;
22024;SDS011;11176;51.448;6.650;2023-02-12T02:02:45;58.78;;;37.50;;
22024;SDS011;11176;51.448;6.650;2023-02-12T02:05:17;58.30;;;38.20;;
22024;SDS011;11176;51.448;6.650;2023-02-12T02:08:04;63.95;;;39.72;;
22024;SDS011;11176;51.448;6.650;2023-02-12T02:10:30;69.68;;;44.05;;
22024;SDS011;11176;51.448;6.650;2023-02-12T02:12:57;72.05;;;45.88;;
22024;SDS011;11176;51.448;6.650;2023-02-12T02:15:43;68.07;;;43.13;;
22024;SDS011;11176;51.448;6.650;2023-02-12T02:18:26;65.05;;;40.60;;
22024;SDS011;11176;51.448;6.650;2023-02-12T02:26:39;59.15;;;38.50;;
22024;SDS011;11176;51.448;6.650;2023-02-12T02:30:08;58.63;;;37.15;;
22024;SDS011;11176;51.448;6.650;2023-02-12T02:32:42;57.72;;;36.90;;
22024;SDS011;11176;51.448;6.650;2023-02-12T02:35:45;62.70;;;37.30;;
22024;SDS011;11176;51.448;6.650;2023-02-12T02:38:21;57.40;;;36.08;;
22024;SDS011;11176;51.448;6.650;2023-02-12T02:41:04;57.43;;;35.53;;
22024;SDS011;11176;51.448;6.650;2023-02-12T02:43:42;55.80;;;34.83;;
22024;SDS011;11176;51.448;6.650;2023-02-12T02:49:06;58.10;;;36.55;;
22024;SDS011;11176;51.448;6.650;2023-02-12T02:51:39;59.97;;;36.75;;
22024;SDS011;11176;51.448;6.650;2023-02-12T02:54:19;57.10;;;35.17;;
22024;SDS011;11176;51.448;6.650;2023-02-12T02:56:51;53.30;;;34.67;;
22024;SDS011;11176;51.448;6.650;2023-02-12T02:59:24;56.85;;;35.92;;
22024;SDS011;11176;51.448;6.650;2023-02-12T03:01:58;60.08;;;36.05;;
22024;SDS011;11176;51.448;6.650;2023-02-12T03:05:02;56.72;;;34.88;;
22024;SDS011;11176;51.448;6.650;2023-02-12T03:10:03;57.78;;;36.10;;
22024;SDS011;11176;51.448;6.650;2023-02-12T03:12:45;57.40;;;36.38;;
22024;SDS011;11176;51.448;6.650;2023-02-12T03:17:52;56.17;;;35.97;;
22024;SDS011;11176;51.448;6.650;2023-02-12T03:20:24;57.90;;;35.90;;
22024;SDS011;11176;51.448;6.650;2023-02-12T03:23:02;59.10;;;37.10;;
22024;SDS011;11176;51.448;6.650;2023-02-12T03:25:33;54.85;;;33.70;;
22024;SDS011;11176;51.448;6.650;2023-02-12T03:28:09;56.05;;;36.08;;
22024;SDS011;11176;51.448;6.650;2023-02-12T03:30:47;52.75;;;33.38;;
22024;SDS011;11176;51.448;6.650;2023-02-12T03:33:25;62.67;;;38.50;;
22024;SDS011;11176;51.448;6.650;2023-02-12T03:39:09;60.78;;;37.15;;
22024;SDS011;11176;51.448;6.650;2023-02-12T03:44:48;56.95;;;35.05;;
22024;SDS011;11176;51.448;6.650;2023-02-12T03:47:24;55.40;;;34.28;;
22024;SDS011;11176;51.448;6.650;2023-02-12T03:50:00;56.28;;;35.35;;
22024;SDS011;11176;51.448;6.650;2023-02-12T03:52:34;55.53;;;34.60;;
22024;SDS011;11176;51.448;6.650;2023-02-12T03:55:01;59.25;;;35.78;;
22024;SDS011;11176;51.448;6.650;2023-02-12T03:57:30;57.92;;;34.90;;
22024;SDS011;11176;51.448;6.650;2023-02-12T04:00:05;56.00;;;34.90;;
22024;SDS011;11176;51.448;6.650;2023-02-12T04:02:40;49.22;;;32.95;;
22024;SDS011;11176;51.448;6.650;2023-02-12T04:05:14;59.08;;;35.15;;
22024;SDS011;11176;51.448;6.650;2023-02-12T04:07:45;56.05;;;33.42;;
22024;SDS011;11176;51.448;6.650;2023-02-12T04:10:12;57.83;;;35.95;;
22024;SDS011;11176;51.448;6.650;2023-02-12T04:12:45;54.63;;;34.67;;
22024;SDS011;11176;51.448;6.650;2023-02-12T04:15:22;54.80;;;35.17;;
22024;SDS011;11176;51.448;6.650;2023-02-12T04:18:19;61.05;;;35.95;;
22024;SDS011;11176;51.448;6.650;2023-02-12T04:21:09;56.85;;;34.90;;
22024;SDS011;11176;51.448;6.650;2023-02-12T04:26:23;53.65;;;32.90;;
22024;SDS011;11176;51.448;6.650;2023-02-12T04:29:02;59.20;;;34.85;;
22024;SDS011;11176;51.448;6.650;2023-02-12T04:31:38;52.58;;;34.40;;
22024;SDS011;11176;51.448;6.650;2023-02-12T04:34:16;57.05;;;35.25;;
22024;SDS011;11176;51.448;6.650;2023-02-12T04:36:55;54.58;;;34.95;;
22024;SDS011;11176;51.448;6.650;2023-02-12T04:39:38;53.25;;;34.05;;
22024;SDS011;11176;51.448;6.650;2023-02-12T04:42:07;55.38;;;36.15;;
22024;SDS011;11176;51.448;6.650;2023-02-12T04:44:36;56.17;;;34.28;;
22024;SDS011;11176;51.448;6.650;2023-02-12T04:47:05;51.38;;;33.03;;
22024;SDS011;11176;51.448;6.650;2023-02-12T04:49:31;55.67;;;34.60;;
22024;SDS011;11176;51.448;6.650;2023-02-12T04:51:58;58.67;;;33.83;;
22024;SDS011;11176;51.448;6.650;2023-02-12T04:54:24;54.05;;;34.78;;
22024;SDS011;11176;51.448;6.650;2023-02-12T04:56:51;49.70;;;32.67;;
22024;SDS011;11176;51.448;6.650;2023-02-12T04:59:18;49.00;;;31.98;;
22024;SDS011;11176;51.448;6.650;2023-02-12T05:01:44;56.17;;;34.10;;
22024;SDS011;11176;51.448;6.650;2023-02-12T05:04:12;57.08;;;34.45;;
22024;SDS011;11176;51.448;6.650;2023-02-12T05:06:40;53.55;;;33.83;;
22024;SDS011;11176;51.448;6.650;2023-02-12T05:09:09;52.25;;;33.97;;
22024;SDS011;11176;51.448;6.650;2023-02-12T05:11:38;54.97;;;35.08;;
22024;SDS011;11176;51.448;6.650;2023-02-12T05:14:04;57.70;;;35.47;;
22024;SDS011;11176;51.448;6.650;2023-02-12T05:16:31;54.35;;;34.25;;
22024;SDS011;11176;51.448;6.650;2023-02-12T05:18:57;54.22;;;34.15;;
22024;SDS011;11176;51.448;6.650;2023-02-12T05:21:24;55.95;;;34.45;;
22024;SDS011;11176;51.448;6.650;2023-02-12T05:23:50;55.70;;;33.10;;
22024;SDS011;11176;51.448;6.650;2023-02-12T05:26:18;52.22;;;32.80;;
22024;SDS011;11176;51.448;6.650;2023-02-12T05:28:46;54.55;;;33.15;;
22024;SDS011;11176;51.448;6.650;2023-02-12T05:31:14;57.08;;;33.95;;
22024;SDS011;11176;51.448;6.650;2023-02-12T05:33:46;54.70;;;33.70;;
22024;SDS011;11176;51.448;6.650;2023-02-12T05:36:17;51.67;;;30.80;;
22024;SDS011;11176;51.448;6.650;2023-02-12T05:38:46;52.75;;;32.85;;
22024;SDS011;11176;51.448;6.650;2023-02-12T05:41:14;52.70;;;33.15;;
22024;SDS011;11176;51.448;6.650;2023-02-12T05:43:42;53.45;;;34.28;;
22024;SDS011;11176;51.448;6.650;2023-02-12T05:46:09;50.47;;;31.05;;
22024;SDS011;11176;51.448;6.650;2023-02-12T05:48:37;53.92;;;33.13;;
22024;SDS011;11176;51.448;6.650;2023-02-12T05:51:09;51.20;;;32.05;;
22024;SDS011;11176;51.448;6.650;2023-02-12T05:53:40;51.97;;;33.25;;
22024;SDS011;11176;51.448;6.650;2023-02-12T05:56:14;48.40;;;32.22;;
22024;SDS011;11176;51.448;6.650;2023-02-12T05:58:44;50.25;;;32.50;;
22024;SDS011;11176;51.448;6.650;2023-02-12T06:01:16;51.15;;;32.08;;
22024;SDS011;11176;51.448;6.650;2023-02-12T06:03:44;49.17;;;31.85;;
22024;SDS011;11176;51.448;6.650;2023-02-12T06:06:11;51.35;;;33.35;;
22024;SDS011;11176;51.448;6.650;2023-02-12T06:08:38;55.15;;;33.40;;
22024;SDS011;11176;51.448;6.650;2023-02-12T06:11:06;53.38;;;33.83;;
22024;SDS011;11176;51.448;6.650;2023-02-12T06:13:35;53.90;;;33.88;;
22024;SDS011;11176;51.448;6.650;2023-02-12T06:16:02;51.08;;;33.50;;
22024;SDS011;11176;51.448;6.650;2023-02-12T06:18:29;49.05;;;31.50;;
22024;SDS011;11176;51.448;6.650;2023-02-12T06:20:56;48.22;;;30.95;;
22024;SDS011;11176;51.448;6.650;2023-02-12T06:23:23;50.05;;;32.08;;
22024;SDS011;11176;51.448;6.650;2023-02-12T06:25:53;52.40;;;33.95;;
22024;SDS011;11176;51.448;6.650;2023-02-12T06:28:21;56.17;;;33.33;;
22024;SDS011;11176;51.448;6.650;2023-02-12T06:30:48;48.30;;;31.17;;
22024;SDS011;11176;51.448;6.650;2023-02-12T06:33:15;49.80;;;31.50;;
22024;SDS011;11176;51.448;6.650;2023-02-12T06:35:41;51.22;;;31.58;;
22024;SDS011;11176;51.448;6.650;2023-02-12T06:38:08;51.20;;;32.65;;
22024;SDS011;11176;51.448;6.650;2023-02-12T06:40:34;51.10;;;32.28;;
22024;SDS011;11176;51.448;6.650;2023-02-12T06:43:01;52.63;;;33.35;;
22024;SDS011;11176;51.448;6.650;2023-02-12T06:45:27;51.45;;;32.08;;
22024;SDS011;11176;51.448;6.650;2023-02-12T06:47:54;51.92;;;32.17;;
22024;SDS011;11176;51.448;6.650;2023-02-12T06:50:20;50.35;;;32.60;;
22024;SDS011;11176;51.448;6.650;2023-02-12T06:52:47;48.25;;;31.98;;
22024;SDS011;11176;51.448;6.650;2023-02-12T06:55:13;51.17;;;32.25;;
22024;SDS011;11176;51.448;6.650;2023-02-12T06:57:40;51.53;;;32.72;;
22024;SDS011;11176;51.448;6.650;2023-02-12T07:00:06;51.42;;;32.90;;
22024;SDS011;11176;51.448;6.650;2023-02-12T07:02:33;51.38;;;33.00;;
22024;SDS011;11176;51.448;6.650;2023-02-12T07:05:03;52.45;;;34.42;;
22024;SDS011;11176;51.448;6.650;2023-02-12T07:07:30;56.97;;;34.00;;
22024;SDS011;11176;51.448;6.650;2023-02-12T07:09:57;50.97;;;32.25;;
22024;SDS011;11176;51.448;6.650;2023-02-12T07:12:23;53.13;;;33.40;;
22024;SDS011;11176;51.448;6.650;2023-02-12T07:14:49;55.03;;;34.33;;
22024;SDS011;11176;51.448;6.650;2023-02-12T07:17:16;49.58;;;31.92;;
22024;SDS011;11176;51.448;6.650;2023-02-12T07:19:42;55.80;;;33.40;;
22024;SDS011;11176;51.448;6.650;2023-02-12T07:22:09;51.88;;;32.92;;
22024;SDS011;11176;51.448;6.650;2023-02-12T07:24:35;55.47;;;34.20;;
22024;SDS011;11176;51.448;6.650;2023-02-12T07:27:04;56.40;;;33.55;;
22024;SDS011;11176;51.448;6.650;2023-02-12T07:29:30;55.80;;;35.25;;
22024;SDS011;11176;51.448;6.650;2023-02-12T07:31:56;53.20;;;33.17;;
22024;SDS011;11176;51.448;6.650;2023-02-12T07:34:23;55.10;;;34.13;;
22024;SDS011;11176;51.448;6.650;2023-02-12T07:36:49;55.17;;;34.05;;
22024;SDS011;11176;51.448;6.650;2023-02-12T07:39:16;54.40;;;32.85;;
22024;SDS011;11176;51.448;6.650;2023-02-12T07:41:42;51.53;;;34.15;;
22024;SDS011;11176;51.448;6.650;2023-02-12T07:44:09;55.90;;;34.95;;
22024;SDS011;11176;51.448;6.650;2023-02-12T07:46:38;55.92;;;35.60;;
22024;SDS011;11176;51.448;6.650;2023-02-12T07:49:09;54.50;;;34.92;;
22024;SDS011;11176;51.448;6.650;2023-02-12T07:51:38;55.08;;;34.88;;
22024;SDS011;11176;51.448;6.650;2023-02-12T07:54:05;62.97;;;37.72;;
22024;SDS011;11176;51.448;6.650;2023-02-12T07:56:33;53.25;;;34.28;;
22024;SDS011;11176;51.448;6.650;2023-02-12T07:59:02;52.30;;;33.63;;
22024;SDS011;11176;51.448;6.650;2023-02-12T08:01:37;50.33;;;33.93;;
22024;SDS011;11176;51.448;6.650;2023-02-12T08:04:07;53.95;;;33.97;;
22024;SDS011;11176;51.448;6.650;2023-02-12T08:06:37;56.63;;;34.55;;
22024;SDS011;11176;51.448;6.650;2023-02-12T08:09:05;55.97;;;35.47;;
22024;SDS011;11176;51.448;6.650;2023-02-12T08:11:35;55.92;;;35.92;;
22024;SDS011;11176;51.448;6.650;2023-02-12T08:14:03;54.80;;;34.67;;
22024;SDS011;11176;51.448;6.650;2023-02-12T08:16:30;59.30;;;34.80;;
22024;SDS011;11176;51.448;6.650;2023-02-12T08:19:02;51.35;;;31.75;;
22024;SDS011;11176;51.448;6.650;2023-02-12T08:21:44;54.30;;;33.05;;
22024;SDS011;11176;51.448;6.650;2023-02-12T08:24:13;56.25;;;34.60;;
22024;SDS011;11176;51.448;6.650;2023-02-12T08:26:40;56.22;;;34.35;;
22024;SDS011;11176;51.448;6.650;2023-02-12T08:29:08;52.85;;;31.77;;
22024;SDS011;11176;51.448;6.650;2023-02-12T08:31:43;55.38;;;32.75;;
22024;SDS011;11176;51.448;6.650;2023-02-12T08:34:21;52.90;;;32.92;;
22024;SDS011;11176;51.448;6.650;2023-02-12T08:36:50;50.42;;;31.85;;
22024;SDS011;11176;51.448;6.650;2023-02-12T08:39:22;53.08;;;32.13;;
22024;SDS011;11176;51.448;6.650;2023-02-12T08:41:52;54.33;;;33.53;;
22024;SDS011;11176;51.448;6.650;2023-02-12T08:44:19;54.35;;;31.38;;
22024;SDS011;11176;51.448;6.650;2023-02-12T08:46:48;54.20;;;31.90;;
22024;SDS011;11176;51.448;6.650;2023-02-12T08:49:22;54.63;;;32.40;;
22024;SDS011;11176;51.448;6.650;2023-02-12T08:51:51;54.78;;;32.20;;
22024;SDS011;11176;51.448;6.650;2023-02-12T08:54:20;59.83;;;33.40;;
22024;SDS011;11176;51.448;6.650;2023-02-12T08:56:55;56.47;;;35.97;;
22024;SDS011;11176;51.448;6.650;2023-02-12T08:59:23;55.10;;;33.40;;
22024;SDS011;11176;51.448;6.650;2023-02-12T09:01:50;57.30;;;34.20;;
22024;SDS011;11176;51.448;6.650;2023-02-12T09:04:20;57.22;;;35.45;;
22024;SDS011;11176;51.448;6.650;2023-02-12T09:06:49;57.88;;;34.22;;
22024;SDS011;11176;51.448;6.650;2023-02-12T09:09:16;57.08;;;35.03;;
22024;SDS011;11176;51.448;6.650;2023-02-12T09:11:42;68.40;;;37.00;;
22024;SDS011;11176;51.448;6.650;2023-02-12T09:14:10;60.03;;;36.38;;
22024;SDS011;11176;51.448;6.650;2023-02-12T09:16:39;57.47;;;34.03;;
22024;SDS011;11176;51.448;6.650;2023-02-12T09:19:07;56.17;;;33.40;;
22024;SDS011;11176;51.448;6.650;2023-02-12T09:21:36;59.13;;;36.03;;
22024;SDS011;11176;51.448;6.650;2023-02-12T09:24:02;55.88;;;33.22;;
22024;SDS011;11176;51.448;6.650;2023-02-12T09:26:29;53.90;;;33.50;;
22024;SDS011;11176;51.448;6.650;2023-02-12T09:28:56;55.08;;;33.38;;
22024;SDS011;11176;51.448;6.650;2023-02-12T09:31:24;51.90;;;32.53;;
22024;SDS011;11176;51.448;6.650;2023-02-12T09:33:54;49.53;;;31.55;;
22024;SDS011;11176;51.448;6.650;2023-02-12T09:36:24;50.33;;;31.40;;
22024;SDS011;11176;51.448;6.650;2023-02-12T09:38:50;51.72;;;31.52;;
22024;SDS011;11176;51.448;6.650;2023-02-12T09:41:23;49.70;;;31.50;;
22024;SDS011;11176;51.448;6.650;2023-02-12T09:43:56;47.33;;;31.00;;
22024;SDS011;11176;51.448;6.650;2023-02-12T09:49:11;47.00;;;28.92;;
22024;SDS011;11176;51.448;6.650;2023-02-12T09:51:44;42.22;;;27.95;;
22024;SDS011;11176;51.448;6.650;2023-02-12T09:54:17;45.55;;;28.10;;
22024;SDS011;11176;51.448;6.650;2023-02-12T09:56:53;43.25;;;27.83;;
22024;SDS011;11176;51.448;6.650;2023-02-12T09:59:31;44.17;;;28.05;;
22024;SDS011;11176;51.448;6.650;2023-02-12T10:02:00;44.50;;;28.23;;
22024;SDS011;11176;51.448;6.650;2023-02-12T10:04:27;45.58;;;27.65;;
22024;SDS011;11176;51.448;6.650;2023-02-12T10:07:00;43.53;;;27.98;;
22024;SDS011;11176;51.448;6.650;2023-02-12T10:09:44;43.33;;;26.60;;
22024;SDS011;11176;51.448;6.650;2023-02-12T10:18:30;43.58;;;27.40;;
22024;SDS011;11176;51.448;6.650;2023-02-12T10:24:19;45.10;;;27.55;;
22024;SDS011;11176;51.448;6.650;2023-02-12T10:26:53;40.90;;;27.15;;
22024;SDS011;11176;51.448;6.650;2023-02-12T10:29:25;40.45;;;27.13;;
22024;SDS011;11176;51.448;6.650;2023-02-12T10:31:54;38.97;;;25.27;;
22024;SDS011;11176;51.448;6.650;2023-02-12T10:34:29;36.45;;;24.88;;
22024;SDS011;11176;51.448;6.650;2023-02-12T10:37:02;34.05;;;22.50;;
22024;SDS011;11176;51.448;6.650;2023-02-12T10:39:35;35.33;;;23.05;;
22024;SDS011;11176;51.448;6.650;2023-02-12T10:42:17;30.83;;;22.02;;
22024;SDS011;11176;51.448;6.650;2023-02-12T10:44:51;31.80;;;21.45;;
22024;SDS011;11176;51.448;6.650;2023-02-12T10:47:19;32.70;;;22.55;;
22024;SDS011;11176;51.448;6.650;2023-02-12T10:49:48;31.67;;;21.50;;
22024;SDS011;11176;51.448;6.650;2023-02-12T10:52:29;30.98;;;20.90;;
22024;SDS011;11176;51.448;6.650;2023-02-12T10:55:22;33.25;;;20.98;;
22024;SDS011;11176;51.448;6.650;2023-02-12T10:57:51;31.13;;;20.73;;
22024;SDS011;11176;51.448;6.650;2023-02-12T11:00:31;31.40;;;20.80;;
22024;SDS011;11176;51.448;6.650;2023-02-12T11:05:29;33.50;;;21.92;;
22024;SDS011;11176;51.448;6.650;2023-02-12T11:07:59;29.65;;;21.00;;
22024;SDS011;11176;51.448;6.650;2023-02-12T11:10:30;32.95;;;21.38;;
22024;SDS011;11176;51.448;6.650;2023-02-12T11:12:58;31.95;;;21.10;;
22024;SDS011;11176;51.448;6.650;2023-02-12T11:15:26;31.38;;;21.25;;
22024;SDS011;11176;51.448;6.650;2023-02-12T11:18:03;34.28;;;21.70;;
22024;SDS011;11176;51.448;6.650;2023-02-12T11:23:05;28.20;;;18.77;;
22024;SDS011;11176;51.448;6.650;2023-02-12T11:28:33;26.52;;;18.00;;
22024;SDS011;11176;51.448;6.650;2023-02-12T11:31:03;24.40;;;16.45;;
22024;SDS011;11176;51.448;6.650;2023-02-12T11:34:05;23.73;;;16.40;;
22024;SDS011;11176;51.448;6.650;2023-02-12T11:36:39;26.13;;;17.60;;
22024;SDS011;11176;51.448;6.650;2023-02-12T11:41:53;23.98;;;16.80;;
22024;SDS011;11176;51.448;6.650;2023-02-12T11:44:27;22.42;;;16.05;;
22024;SDS011;11176;51.448;6.650;2023-02-12T11:46:58;25.45;;;16.38;;
22024;SDS011;11176;51.448;6.650;2023-02-12T11:49:52;24.75;;;15.82;;
22024;SDS011;11176;51.448;6.650;2023-02-12T11:52:25;27.00;;;16.60;;
22024;SDS011;11176;51.448;6.650;2023-02-12T11:54:55;24.20;;;16.63;;
22024;SDS011;11176;51.448;6.650;2023-02-12T11:57:43;29.80;;;20.48;;
22024;SDS011;11176;51.448;6.650;2023-02-12T12:02:54;29.35;;;20.13;;
22024;SDS011;11176;51.448;6.650;2023-02-12T12:05:21;31.95;;;21.15;;
22024;SDS011;11176;51.448;6.650;2023-02-12T12:07:55;31.13;;;20.40;;
22024;SDS011;11176;51.448;6.650;2023-02-12T12:10:32;33.28;;;22.20;;
22024;SDS011;11176;51.448;6.650;2023-02-12T12:13:09;31.05;;;20.63;;
22024;SDS011;11176;51.448;6.650;2023-02-12T12:15:45;27.27;;;19.30;;
22024;SDS011;11176;51.448;6.650;2023-02-12T12:18:46;32.17;;;21.10;;
22024;SDS011;11176;51.448;6.650;2023-02-12T12:21:49;29.58;;;20.58;;
22024;SDS011;11176;51.448;6.650;2023-02-12T12:24:40;28.63;;;19.48;;
22024;SDS011;11176;51.448;6.650;2023-02-12T12:27:15;30.58;;;19.73;;
22024;SDS011;11176;51.448;6.650;2023-02-12T12:30:31;27.25;;;18.27;;
22024;SDS011;11176;51.448;6.650;2023-02-12T12:33:02;28.70;;;18.15;;
22024;SDS011;11176;51.448;6.650;2023-02-12T12:35:46;28.92;;;18.80;;
22024;SDS011;11176;51.448;6.650;2023-02-12T12:41:47;32.33;;;19.98;;
22024;SDS011;11176;51.448;6.650;2023-02-12T12:44:55;34.55;;;22.20;;
22024;SDS011;11176;51.448;6.650;2023-02-12T13:01:19;32.90;;;23.33;;
22024;SDS011;11176;51.448;6.650;2023-02-12T13:09:51;34.10;;;22.42;;
22024;SDS011;11176;51.448;6.650;2023-02-12T13:15:32;33.20;;;22.25;;
22024;SDS011;11176;51.448;6.650;2023-02-12T13:21:03;33.17;;;22.10;;
22024;SDS011;11176;51.448;6.650;2023-02-12T13:23:40;32.15;;;21.98;;
22024;SDS011;11176;51.448;6.650;2023-02-12T13:31:39;37.13;;;22.23;;
22024;SDS011;11176;51.448;6.650;2023-02-12T13:34:21;32.42;;;21.65;;
22024;SDS011;11176;51.448;6.650;2023-02-12T13:36:51;35.55;;;22.67;;
22024;SDS011;11176;51.448;6.650;2023-02-12T13:39:26;34.30;;;22.80;;
22024;SDS011;11176;51.448;6.650;2023-02-12T13:45:18;32.70;;;21.42;;
22024;SDS011;11176;51.448;6.650;2023-02-12T13:47:36;32.40;;;22.20;;
22024;SDS011;11176;51.448;6.650;2023-02-12T13:56:00;31.60;;;21.38;;
22024;SDS011;11176;51.448;6.650;2023-02-12T14:01:06;31.70;;;21.40;;
22024;SDS011;11176;51.448;6.650;2023-02-12T14:03:37;33.38;;;21.10;;
22024;SDS011;11176;51.448;6.650;2023-02-12T14:06:14;33.05;;;20.80;;
22024;SDS011;11176;51.448;6.650;2023-02-12T14:08:50;31.55;;;20.92;;
22024;SDS011;11176;51.448;6.650;2023-02-12T14:11:20;31.08;;;20.70;;
22024;SDS011;11176;51.448;6.650;2023-02-12T14:13:57;30.75;;;20.08;;
22024;SDS011;11176;51.448;6.650;2023-02-12T14:22:00;32.65;;;20.90;;
22024;SDS011;11176;51.448;6.650;2023-02-12T14:27:06;33.20;;;21.40;;
22024;SDS011;11176;51.448;6.650;2023-02-12T14:37:52;34.50;;;21.40;;
22024;SDS011;11176;51.448;6.650;2023-02-12T14:43:27;33.13;;;20.60;;
22024;SDS011;11176;51.448;6.650;2023-02-12T14:46:41;31.42;;;19.35;;
22024;SDS011;11176;51.448;6.650;2023-02-12T14:51:20;31.70;;;20.15;;
22024;SDS011;11176;51.448;6.650;2023-02-12T14:53:52;31.23;;;20.08;;
22024;SDS011;11176;51.448;6.650;2023-02-12T14:56:21;30.05;;;20.65;;
22024;SDS011;11176;51.448;6.650;2023-02-12T14:58:49;29.23;;;19.80;;
22024;SDS011;11176;51.448;6.650;2023-02-12T15:01:24;27.73;;;19.50;;
22024;SDS011;11176;51.448;6.650;2023-02-12T15:03:57;31.02;;;19.95;;
22024;SDS011;11176;51.448;6.650;2023-02-12T15:06:33;31.08;;;20.73;;
22024;SDS011;11176;51.448;6.650;2023-02-12T15:09:09;33.45;;;20.33;;
22024;SDS011;11176;51.448;6.650;2023-02-12T15:11:44;31.50;;;20.05;;
22024;SDS011;11176;51.448;6.650;2023-02-12T15:14:19;31.88;;;19.92;;
22024;SDS011;11176;51.448;6.650;2023-02-12T15:16:54;30.50;;;19.98;;
22024;SDS011;11176;51.448;6.650;2023-02-12T15:21:55;29.83;;;18.73;;
22024;SDS011;11176;51.448;6.650;2023-02-12T15:24:22;31.67;;;20.58;;
22024;SDS011;11176;51.448;6.650;2023-02-12T15:26:51;32.10;;;20.35;;
22024;SDS011;11176;51.448;6.650;2023-02-12T15:29:40;31.17;;;19.33;;
22024;SDS011;11176;51.448;6.650;2023-02-12T15:32:08;30.92;;;19.88;;
22024;SDS011;11176;51.448;6.650;2023-02-12T15:34:44;29.73;;;18.85;;
22024;SDS011;11176;51.448;6.650;2023-02-12T15:37:16;28.50;;;19.70;;
22024;SDS011;11176;51.448;6.650;2023-02-12T15:39:50;32.65;;;20.35;;
22024;SDS011;11176;51.448;6.650;2023-02-12T15:42:22;33.63;;;21.13;;
22024;SDS011;11176;51.448;6.650;2023-02-12T15:44:50;33.30;;;20.88;;
22024;SDS011;11176;51.448;6.650;2023-02-12T15:47:16;32.47;;;20.45;;
22024;SDS011;11176;51.448;6.650;2023-02-12T15:49:49;34.05;;;20.08;;
22024;SDS011;11176;51.448;6.650;2023-02-12T15:52:17;32.08;;;18.77;;
22024;SDS011;11176;51.448;6.650;2023-02-12T15:54:46;33.70;;;20.48;;
22024;SDS011;11176;51.448;6.650;2023-02-12T15:57:18;31.48;;;19.48;;
22024;SDS011;11176;51.448;6.650;2023-02-12T15:59:50;30.05;;;19.65;;
22024;SDS011;11176;51.448;6.650;2023-02-12T16:02:19;31.92;;;20.15;;
22024;SDS011;11176;51.448;6.650;2023-02-12T16:04:57;33.08;;;20.23;;
22024;SDS011;11176;51.448;6.650;2023-02-12T16:07:25;34.75;;;20.83;;
22024;SDS011;11176;51.448;6.650;2023-02-12T16:09:56;29.58;;;19.67;;
22024;SDS011;11176;51.448;6.650;2023-02-12T16:12:24;29.35;;;19.13;;
22024;SDS011;11176;51.448;6.650;2023-02-12T16:14:56;33.63;;;21.52;;
22024;SDS011;11176;51.448;6.650;2023-02-12T16:17:30;31.00;;;19.40;;
22024;SDS011;11176;51.448;6.650;2023-02-12T16:19:59;28.20;;;19.60;;
22024;SDS011;11176;51.448;6.650;2023-02-12T16:22:34;33.28;;;20.35;;
22024;SDS011;11176;51.448;6.650;2023-02-12T16:27:37;32.25;;;20.58;;
22024;SDS011;11176;51.448;6.650;2023-02-12T16:36:05;34.05;;;20.90;;
22024;SDS011;11176;51.448;6.650;2023-02-12T16:38:39;34.40;;;20.65;;
22024;SDS011;11176;51.448;6.650;2023-02-12T16:43:44;31.15;;;20.25;;
22024;SDS011;11176;51.448;6.650;2023-02-12T16:46:18;32.42;;;21.55;;
22024;SDS011;11176;51.448;6.650;2023-02-12T16:48:46;30.75;;;19.55;;
22024;SDS011;11176;51.448;6.650;2023-02-12T16:51:24;32.47;;;20.92;;
22024;SDS011;11176;51.448;6.650;2023-02-12T16:53:53;37.05;;;22.98;;
22024;SDS011;11176;51.448;6.650;2023-02-12T16:56:23;38.47;;;24.23;;
22024;SDS011;11176;51.448;6.650;2023-02-12T16:58:53;41.55;;;24.83;;